Scroggsfield, Ohio
Current Conditions -  °F | °C
As of 11:53 PM on Saturday 22 Nov 2014 (Local Time) from KPHD Reporting Station
Broken Clouds Broken Clouds  
Wind Chill: 45°   Ceiling: 9500
Heat Index: 47°   Visibility: 10mi
Dew Point: 32°   Wind: 5mph
Humidity: 56%   Direction: 160°SSE
Pressure: 30.09"   Gusts: NA
Location:  40.5653°N, 81.0724°W
Report Text: KPHD 230453Z AUTO 16004KT 10SM SCT070 BKN095 08/00 A3009 RMK AO2 SLP195 T00830000 401061111
Loading
Personal Weather Stations






























Interactive Weather Map New forecast layout! Learn more

10-Day Weather Forecast

Advertisements
Track Severe Weather on mobile